createdAt,value
2022-12-08T00:01:53.682Z,78.96
2022-12-08T00:04:25.342Z,78.83
2022-12-08T00:07:15.942Z,78.78
2022-12-08T00:09:47.602Z,78.80
2022-12-08T00:12:19.226Z,78.63
2022-12-08T00:14:51.444Z,78.73
2022-12-08T00:17:23.155Z,78.43
2022-12-08T00:19:54.849Z,78.56
2022-12-08T00:22:26.473Z,78.39
2022-12-08T00:24:58.319Z,78.37
2022-12-08T00:27:30.019Z,78.46
2022-12-08T00:30:01.701Z,78.61
2022-12-08T00:32:33.311Z,78.51
2022-12-08T00:35:05.799Z,78.33
2022-12-08T00:37:37.633Z,78.24
2022-12-08T00:40:12.625Z,78.27
2022-12-08T00:42:44.317Z,78.26
2022-12-08T00:45:16.091Z,78.24
2022-12-08T00:47:47.797Z,78.45
2022-12-08T00:50:23.378Z,78.52
2022-12-08T00:52:55.099Z,78.59
2022-12-08T00:55:26.899Z,78.62
2022-12-08T00:57:58.576Z,78.72
2022-12-08T01:00:30.317Z,78.68
2022-12-08T01:03:03.359Z,78.60
2022-12-08T01:05:35.174Z,78.56
2022-12-08T01:08:09.920Z,78.43
2022-12-08T01:10:42.211Z,78.46
2022-12-08T01:13:13.877Z,78.48
2022-12-08T01:15:45.766Z,78.52
2022-12-08T01:18:17.648Z,78.41
2022-12-08T01:20:49.584Z,78.38
2022-12-08T01:23:21.171Z,78.49
2022-12-08T01:25:52.787Z,78.49
2022-12-08T01:28:24.534Z,78.41
2022-12-08T01:30:56.200Z,78.49
2022-12-08T01:33:28.581Z,78.61
2022-12-08T01:36:05.749Z,78.66
2022-12-08T01:38:37.377Z,78.74
2022-12-08T01:41:09.150Z,78.81
2022-12-08T01:43:58.136Z,78.88
2022-12-08T01:46:31.360Z,78.99
2022-12-08T01:49:08.790Z,78.99
2022-12-08T01:51:44.082Z,79.13
2022-12-08T01:54:16.755Z,79.07
2022-12-08T01:56:55.277Z,79.14
2022-12-08T01:59:28.046Z,79.27
2022-12-08T02:01:59.899Z,79.22
2022-12-08T02:04:31.533Z,79.27
2022-12-08T02:07:07.981Z,79.35
2022-12-08T02:09:41.184Z,79.29
2022-12-08T02:12:13.266Z,79.42
2022-12-08T02:14:44.867Z,79.53
2022-12-08T02:17:31.682Z,79.62
2022-12-08T02:20:24.873Z,79.71
2022-12-08T02:23:06.262Z,79.65
2022-12-08T02:25:51.694Z,79.70
2022-12-08T02:28:45.658Z,79.76
2022-12-08T02:31:33.818Z,79.66
2022-12-08T02:34:18.858Z,79.68
2022-12-08T02:37:01.084Z,79.77
2022-12-08T02:39:43.817Z,79.67
2022-12-08T02:42:25.130Z,79.68
2022-12-08T02:45:03.720Z,79.65
2022-12-08T02:47:36.460Z,79.72
2022-12-08T02:50:12.859Z,79.77
2022-12-08T02:52:49.009Z,79.74
2022-12-08T02:55:27.613Z,79.61
2022-12-08T02:58:25.333Z,79.54
2022-12-08T03:01:13.939Z,79.64
2022-12-08T03:03:52.237Z,79.60
2022-12-08T03:06:32.046Z,79.63
2022-12-08T03:09:09.608Z,79.41
2022-12-08T03:11:45.849Z,79.57
2022-12-08T03:14:19.275Z,79.55
2022-12-08T03:16:56.550Z,79.62
2022-12-08T03:19:31.136Z,79.43
2022-12-08T03:22:04.779Z,79.29
2022-12-08T03:24:40.822Z,79.31
2022-12-08T03:27:14.776Z,79.12
2022-12-08T03:29:47.453Z,79.14
2022-12-08T03:32:29.629Z,79.28
2022-12-08T03:35:05.538Z,79.27
2022-12-08T03:37:39.260Z,79.30
2022-12-08T03:40:15.361Z,79.32
2022-12-08T03:42:47.372Z,79.20
2022-12-08T03:45:19.035Z,79.30
2022-12-08T03:47:50.777Z,79.44
2022-12-08T03:50:25.378Z,79.49
2022-12-08T03:52:57.096Z,79.55
2022-12-08T03:55:29.663Z,79.35
2022-12-08T03:58:01.423Z,79.48
2022-12-08T04:00:33.325Z,79.49
2022-12-08T04:03:07.165Z,79.43
2022-12-08T04:05:38.908Z,79.34
2022-12-08T04:08:10.679Z,79.23
2022-12-08T04:10:42.355Z,79.21
2022-12-08T04:13:14.105Z,79.11
2022-12-08T04:15:49.840Z,79.15
2022-12-08T04:18:21.968Z,79.18
2022-12-08T04:20:54.012Z,79.21
2022-12-08T04:23:26.095Z,79.08
2022-12-08T04:25:57.755Z,79.23
2022-12-08T04:28:29.812Z,79.17
2022-12-08T04:31:02.075Z,79.16
2022-12-08T04:33:35.289Z,79.12
2022-12-08T04:36:09.097Z,79.12
2022-12-08T04:38:40.808Z,79.03
2022-12-08T04:41:12.537Z,79.04
2022-12-08T04:43:45.002Z,79.12
2022-12-08T04:46:16.783Z,79.01
2022-12-08T04:48:48.873Z,78.97
2022-12-08T04:51:21.642Z,78.92
2022-12-08T04:53:53.359Z,79.01
2022-12-08T04:56:25.347Z,79.05
2022-12-08T04:58:57.316Z,79.09
2022-12-08T05:01:29.034Z,79.07
2022-12-08T05:04:00.929Z,78.90
2022-12-08T05:06:32.652Z,79.10
2022-12-08T05:09:04.591Z,78.98
2022-12-08T05:11:36.179Z,78.91
2022-12-08T05:14:09.794Z,78.98
2022-12-08T05:16:41.431Z,78.93
2022-12-08T05:19:13.306Z,78.87
2022-12-08T05:21:45.844Z,78.96
2022-12-08T05:24:17.439Z,78.80
2022-12-08T05:26:50.610Z,78.95
2022-12-08T05:29:22.369Z,78.98
2022-12-08T05:31:54.390Z,78.93
2022-12-08T05:34:26.376Z,78.79
2022-12-08T05:36:58.006Z,78.87
2022-12-08T05:39:29.785Z,78.99
2022-12-08T05:42:01.466Z,79.10
2022-12-08T05:44:33.231Z,79.08
2022-12-08T05:47:05.146Z,78.95
2022-12-08T05:49:36.922Z,79.10
2022-12-08T05:52:08.951Z,79.03
2022-12-08T05:54:40.880Z,79.14
2022-12-08T05:57:12.870Z,79.23
2022-12-08T05:59:44.881Z,79.14
2022-12-08T06:02:16.743Z,79.17
2022-12-08T06:04:48.576Z,79.00
2022-12-08T06:07:20.507Z,78.93
2022-12-08T06:09:52.230Z,79.11
2022-12-08T06:12:24.373Z,79.17
2022-12-08T06:14:56.114Z,79.28
2022-12-08T06:17:27.726Z,79.20
2022-12-08T06:19:59.491Z,79.22
2022-12-08T06:22:31.445Z,79.13
2022-12-08T06:25:07.216Z,79.06
2022-12-08T06:27:41.496Z,79.16
2022-12-08T06:30:26.444Z,79.22
2022-12-08T06:32:58.138Z,79.23
2022-12-08T06:35:29.834Z,79.29
2022-12-08T06:38:01.468Z,79.25
2022-12-08T06:40:33.072Z,79.25
2022-12-08T06:43:04.822Z,79.45
2022-12-08T06:45:36.756Z,79.43
2022-12-08T06:48:09.089Z,79.49
2022-12-08T06:50:40.743Z,79.42
2022-12-08T06:53:14.036Z,79.39
2022-12-08T06:56:03.576Z,79.33
2022-12-08T06:58:35.685Z,79.45
2022-12-08T07:01:12.484Z,79.39
2022-12-08T07:03:44.701Z,79.42
2022-12-08T07:06:21.564Z,79.61
2022-12-08T07:08:53.278Z,79.58
2022-12-08T07:11:25.037Z,79.63
2022-12-08T07:13:58.228Z,79.71
2022-12-08T07:16:30.452Z,79.65
2022-12-08T07:19:02.197Z,79.62
2022-12-08T07:21:34.273Z,79.87
2022-12-08T07:24:06.556Z,79.79
2022-12-08T07:26:41.144Z,79.72
2022-12-08T07:29:13.678Z,79.83
2022-12-08T07:31:45.346Z,79.91
2022-12-08T07:34:17.043Z,79.86
2022-12-08T07:36:48.883Z,79.85
2022-12-08T07:39:20.498Z,79.87
2022-12-08T07:41:52.165Z,79.94
2022-12-08T07:44:23.837Z,80.00
2022-12-08T07:46:55.952Z,79.87
2022-12-08T07:49:27.848Z,79.94
2022-12-08T07:51:59.831Z,79.98
2022-12-08T07:54:31.726Z,79.92
2022-12-08T07:57:03.890Z,79.95
2022-12-08T07:59:35.541Z,79.95
2022-12-08T08:02:23.448Z,79.89
2022-12-08T08:04:55.807Z,79.94
2022-12-08T08:07:27.581Z,79.82
2022-12-08T08:09:59.245Z,79.98
2022-12-08T08:12:32.336Z,79.97
2022-12-08T08:15:05.797Z,79.97
2022-12-08T08:17:38.421Z,79.90
2022-12-08T08:20:13.486Z,79.97
2022-12-08T08:22:46.253Z,79.91
2022-12-08T08:25:19.147Z,79.84
2022-12-08T08:27:51.077Z,79.67
2022-12-08T08:30:29.475Z,79.47
2022-12-08T08:33:01.355Z,79.37
2022-12-08T08:35:32.975Z,79.35
2022-12-08T08:38:04.840Z,79.18
2022-12-08T08:40:36.649Z,78.94
2022-12-08T08:43:09.074Z,78.97
2022-12-08T08:45:40.747Z,79.06
2022-12-08T08:48:12.477Z,79.08
2022-12-08T08:50:44.408Z,78.91
2022-12-08T08:53:16.240Z,78.87
2022-12-08T08:55:50.314Z,78.87
2022-12-08T08:58:22.088Z,78.95
2022-12-08T09:00:53.756Z,78.96
2022-12-08T09:03:25.464Z,79.05
2022-12-08T09:05:57.869Z,79.14
2022-12-08T09:08:29.851Z,79.19
2022-12-08T09:11:01.851Z,79.24
2022-12-08T09:13:33.603Z,79.16
2022-12-08T09:16:07.477Z,79.12
2022-12-08T09:18:39.191Z,79.14
2022-12-08T09:21:16.560Z,79.25
2022-12-08T09:23:48.376Z,79.10
2022-12-08T09:26:22.520Z,79.20
2022-12-08T09:28:55.977Z,79.09
2022-12-08T09:31:28.122Z,78.85
2022-12-08T09:34:00.459Z,78.92
2022-12-08T09:36:32.382Z,78.83
2022-12-08T09:39:04.333Z,78.72
2022-12-08T09:41:44.838Z,78.52
2022-12-08T09:44:39.252Z,78.46
2022-12-08T09:47:19.627Z,78.54
2022-12-08T09:49:59.552Z,78.78
2022-12-08T09:52:34.680Z,78.89
2022-12-08T09:55:16.664Z,78.47
2022-12-08T09:57:58.626Z,78.65
2022-12-08T10:00:30.471Z,78.51
2022-12-08T10:03:02.135Z,78.58
2022-12-08T10:05:38.818Z,78.40
2022-12-08T10:08:17.783Z,78.56
2022-12-08T10:10:57.131Z,78.54
2022-12-08T10:14:10.024Z,78.41
2022-12-08T10:16:53.546Z,78.13
2022-12-08T10:19:28.076Z,78.09
2022-12-08T10:22:00.448Z,78.00
2022-12-08T10:24:42.455Z,77.87
2022-12-08T10:27:14.781Z,77.96
2022-12-08T10:29:46.368Z,77.92
2022-12-08T10:32:21.434Z,77.92
2022-12-08T10:35:04.457Z,77.73
2022-12-08T10:37:36.250Z,77.42
2022-12-08T10:40:14.050Z,77.02
2022-12-08T10:42:48.867Z,77.37
2022-12-08T10:45:29.273Z,77.05
2022-12-08T10:48:04.494Z,77.07
2022-12-08T10:50:42.541Z,77.54
2022-12-08T10:53:21.844Z,77.57
2022-12-08T10:55:55.085Z,77.51
2022-12-08T10:58:36.453Z,77.66
2022-12-08T11:01:14.119Z,77.66
2022-12-08T11:03:50.924Z,77.68
2022-12-08T11:06:26.951Z,77.94
2022-12-08T11:09:02.053Z,77.59
2022-12-08T11:11:47.069Z,77.48
2022-12-08T11:14:23.801Z,78.06
2022-12-08T11:16:59.013Z,77.87
2022-12-08T11:19:30.722Z,77.89
2022-12-08T11:22:02.339Z,78.14
2022-12-08T11:24:38.666Z,78.18
2022-12-08T11:27:11.238Z,78.10
2022-12-08T11:29:43.729Z,78.29
2022-12-08T11:32:16.080Z,78.15
2022-12-08T11:34:52.044Z,78.10
2022-12-08T11:37:34.769Z,78.10
2022-12-08T11:40:21.832Z,78.18
2022-12-08T11:43:02.089Z,77.95
2022-12-08T11:45:36.472Z,77.87
2022-12-08T11:48:17.020Z,77.56
2022-12-08T11:50:54.186Z,77.68
2022-12-08T11:53:31.458Z,77.61
2022-12-08T11:56:08.056Z,77.69
2022-12-08T11:58:43.331Z,77.40
2022-12-08T12:01:21.368Z,77.35
2022-12-08T12:04:00.717Z,77.41
2022-12-08T12:07:09.825Z,77.23
2022-12-08T12:09:58.713Z,76.89
2022-12-08T12:12:44.717Z,77.09
2022-12-08T12:15:57.273Z,77.26
2022-12-08T12:18:34.455Z,77.07
2022-12-08T12:21:33.925Z,77.10
2022-12-08T12:24:25.441Z,76.79
2022-12-08T12:27:01.776Z,76.75
2022-12-08T12:29:36.857Z,76.92
2022-12-08T12:32:11.534Z,76.68
2022-12-08T12:34:51.078Z,77.01
2022-12-08T12:37:26.281Z,76.88
2022-12-08T12:40:02.171Z,76.59
2022-12-08T12:42:43.037Z,76.60
2022-12-08T12:45:27.202Z,76.73
2022-12-08T12:48:20.849Z,76.78
2022-12-08T12:50:55.251Z,76.48
2022-12-08T12:53:52.194Z,76.35
2022-12-08T12:56:50.310Z,75.62
2022-12-08T12:59:51.662Z,75.61
2022-12-08T13:02:28.712Z,75.70
2022-12-08T13:05:11.271Z,75.07
2022-12-08T13:07:51.062Z,75.45
2022-12-08T13:10:28.215Z,75.16
2022-12-08T13:13:17.457Z,74.82
2022-12-08T13:15:54.965Z,75.40
2022-12-08T13:18:35.247Z,75.48
2022-12-08T13:21:15.174Z,75.34
2022-12-08T13:23:49.103Z,75.16
2022-12-08T13:26:23.679Z,75.25
2022-12-08T13:29:24.950Z,75.32
2022-12-08T13:31:57.275Z,75.19
2022-12-08T13:34:36.901Z,74.74
2022-12-08T13:37:26.366Z,74.87
2022-12-08T13:40:03.772Z,75.13
2022-12-08T13:42:47.057Z,74.87
2022-12-08T13:48:42.301Z,75.02
2022-12-08T13:55:06.813Z,75.29
2022-12-08T13:57:19.709Z,75.17
2022-12-08T13:59:51.831Z,75.64
2022-12-08T14:02:32.974Z,75.66
2022-12-08T14:05:34.589Z,75.38
2022-12-08T14:07:58.753Z,75.54
2022-12-08T14:10:33.400Z,75.60
2022-12-08T14:13:15.726Z,75.71
2022-12-08T14:15:47.424Z,75.80
2022-12-08T14:18:30.806Z,75.76
2022-12-08T14:21:21.803Z,75.95
2022-12-08T14:23:53.651Z,75.71
2022-12-08T14:26:25.483Z,75.76
2022-12-08T14:28:57.555Z,75.93
2022-12-08T14:31:30.152Z,75.94
2022-12-08T14:34:02.010Z,76.16
2022-12-08T14:36:34.145Z,76.03
2022-12-08T14:39:06.192Z,76.01
2022-12-08T14:41:39.334Z,76.07
2022-12-08T14:44:25.214Z,76.05
2022-12-08T14:47:11.584Z,76.06
2022-12-08T14:49:44.587Z,76.28
2022-12-08T14:52:16.785Z,76.28
2022-12-08T14:54:51.156Z,76.22
2022-12-08T14:57:23.447Z,76.25
2022-12-08T14:59:55.180Z,76.23
2022-12-08T15:02:32.871Z,76.41
2022-12-08T15:05:11.397Z,76.38
2022-12-08T15:07:50.630Z,76.46
2022-12-08T15:10:26.845Z,76.37
2022-12-08T15:13:20.675Z,76.30
2022-12-08T15:15:53.962Z,76.48
2022-12-08T15:18:36.422Z,76.59
2022-12-08T15:21:12.671Z,76.40
2022-12-08T15:23:47.204Z,76.43
2022-12-08T15:26:23.305Z,76.51
2022-12-08T15:28:56.007Z,76.39
2022-12-08T15:31:27.762Z,76.38
2022-12-08T15:33:59.635Z,76.47
2022-12-08T15:36:31.641Z,76.55
2022-12-08T15:39:03.482Z,76.52
2022-12-08T15:41:35.188Z,76.51
2022-12-08T15:44:06.856Z,76.45
2022-12-08T15:46:38.505Z,76.50
2022-12-08T15:49:17.243Z,76.38
2022-12-08T15:51:49.114Z,76.39
2022-12-08T15:54:21.072Z,76.50
2022-12-08T15:57:18.578Z,76.49
2022-12-08T15:59:47.852Z,76.50
2022-12-08T16:02:22.816Z,76.63
2022-12-08T16:07:47.794Z,76.56
2022-12-08T16:10:26.486Z,76.40
2022-12-08T16:16:17.896Z,76.47
2022-12-08T16:18:51.088Z,76.35
2022-12-08T16:21:53.345Z,76.22
2022-12-08T16:24:14.923Z,76.15
2022-12-08T16:27:58.796Z,76.23
2022-12-08T16:29:38.769Z,76.12
2022-12-08T16:32:10.450Z,76.03
2022-12-08T16:34:42.375Z,76.06
2022-12-08T16:37:17.058Z,75.91
2022-12-08T16:39:50.271Z,75.79
2022-12-08T16:42:44.495Z,75.97
2022-12-08T16:45:17.858Z,75.87
2022-12-08T16:47:51.057Z,75.95
2022-12-08T16:50:26.947Z,75.99
2022-12-08T16:53:00.907Z,75.84
2022-12-08T16:55:33.020Z,75.71
2022-12-08T16:58:04.848Z,75.68
2022-12-08T17:00:45.061Z,75.83
2022-12-08T17:03:18.547Z,75.31
2022-12-08T17:05:50.232Z,75.58
2022-12-08T17:08:22.288Z,75.82
2022-12-08T17:11:07.474Z,75.83
2022-12-08T17:13:41.383Z,75.85
2022-12-08T17:16:16.901Z,76.31
2022-12-08T17:18:49.162Z,76.46
2022-12-08T17:21:21.284Z,76.69
2022-12-08T17:23:52.945Z,76.95
2022-12-08T17:26:24.611Z,76.86
2022-12-08T17:29:00.871Z,76.91
2022-12-08T17:31:33.643Z,77.00
2022-12-08T17:34:09.650Z,76.95
2022-12-08T17:36:41.374Z,76.70
2022-12-08T17:39:18.264Z,76.75
2022-12-08T17:41:50.767Z,76.59
2022-12-08T17:44:22.635Z,76.60
2022-12-08T17:46:54.371Z,76.47
2022-12-08T17:49:29.640Z,76.50
2022-12-08T17:52:03.114Z,76.45
2022-12-08T17:54:36.477Z,76.56
2022-12-08T17:57:08.241Z,76.53
2022-12-08T17:59:39.942Z,76.40
2022-12-08T18:02:13.447Z,76.35
2022-12-08T18:04:45.100Z,76.64
2022-12-08T18:07:16.730Z,76.84
2022-12-08T18:09:48.531Z,76.90
2022-12-08T18:12:23.563Z,77.12
2022-12-08T18:14:55.738Z,77.13
2022-12-08T18:17:27.399Z,77.09
2022-12-08T18:19:59.002Z,77.37
2022-12-08T18:22:30.713Z,77.27
2022-12-08T18:25:02.512Z,77.18
2022-12-08T18:27:38.567Z,77.20
2022-12-08T18:30:19.284Z,77.22
2022-12-08T18:32:55.846Z,77.13
2022-12-08T18:35:29.046Z,77.16
2022-12-08T18:38:01.249Z,76.94
2022-12-08T18:40:33.201Z,76.81
2022-12-08T18:43:05.070Z,76.99
2022-12-08T18:45:39.708Z,76.71
2022-12-08T18:48:11.435Z,76.73
2022-12-08T18:50:44.873Z,76.64
2022-12-08T18:53:16.605Z,76.68
2022-12-08T18:55:50.996Z,76.91
2022-12-08T18:58:22.618Z,76.89
2022-12-08T19:00:54.335Z,76.83
2022-12-08T19:03:26.009Z,76.56
2022-12-08T19:06:06.274Z,76.71
2022-12-08T19:08:37.942Z,76.80
2022-12-08T19:11:20.170Z,76.64
2022-12-08T19:13:52.051Z,76.43
2022-12-08T19:16:24.219Z,76.51
2022-12-08T19:18:55.891Z,76.62
2022-12-08T19:21:28.604Z,76.53
2022-12-08T19:24:00.490Z,76.40
2022-12-08T19:26:32.101Z,76.65
2022-12-08T19:29:03.835Z,76.68
2022-12-08T19:31:35.641Z,76.78
2022-12-08T19:34:09.299Z,76.72
2022-12-08T19:36:42.756Z,76.65
2022-12-08T19:39:36.053Z,76.61
2022-12-08T19:42:30.692Z,76.64
2022-12-08T19:45:05.790Z,76.73
2022-12-08T19:47:37.488Z,76.64
2022-12-08T19:50:29.368Z,76.64
2022-12-08T19:53:01.208Z,76.69
2022-12-08T19:55:33.103Z,76.79
2022-12-08T19:58:05.479Z,76.68
2022-12-08T20:00:39.024Z,76.81
2022-12-08T20:03:11.880Z,76.95
2022-12-08T20:05:44.449Z,76.89
2022-12-08T20:08:16.484Z,76.63
2022-12-08T20:10:48.559Z,76.87
2022-12-08T20:13:34.072Z,76.87
2022-12-08T20:16:05.987Z,76.75
2022-12-08T20:18:39.006Z,76.68
2022-12-08T20:21:11.989Z,76.61
2022-12-08T20:23:45.531Z,76.69
2022-12-08T20:26:18.526Z,76.66
2022-12-08T20:28:50.459Z,76.69
2022-12-08T20:31:24.573Z,76.69
2022-12-08T20:33:56.659Z,76.62
2022-12-08T20:36:28.443Z,76.77
2022-12-08T20:39:00.053Z,76.79
2022-12-08T20:41:36.139Z,76.84
2022-12-08T20:44:10.968Z,76.69
2022-12-08T20:46:47.757Z,76.85
2022-12-08T20:49:21.188Z,76.75
2022-12-08T20:51:53.172Z,76.77
2022-12-08T20:54:24.914Z,76.68
2022-12-08T20:56:56.684Z,76.86
2022-12-08T20:59:28.664Z,76.77
2022-12-08T21:02:01.267Z,76.83
2022-12-08T21:04:33.001Z,76.75
2022-12-08T21:07:05.182Z,76.84
2022-12-08T21:09:36.993Z,77.09
2022-12-08T21:12:09.414Z,76.80
2022-12-08T21:14:42.674Z,76.88
2022-12-08T21:17:14.593Z,76.86
2022-12-08T21:19:46.256Z,76.96
2022-12-08T21:22:18.107Z,76.93
2022-12-08T21:24:50.423Z,77.01
2022-12-08T21:27:22.231Z,76.97
2022-12-08T21:29:53.878Z,77.08
2022-12-08T21:32:30.090Z,77.03
2022-12-08T21:35:02.654Z,76.98
2022-12-08T21:37:34.478Z,77.01
2022-12-08T21:40:18.301Z,77.10
2022-12-08T21:42:50.868Z,77.03
2022-12-08T21:45:23.597Z,77.03
2022-12-08T21:47:55.414Z,77.06
2022-12-08T21:50:27.608Z,77.10
2022-12-08T21:52:59.519Z,76.94
2022-12-08T21:55:31.468Z,76.91
2022-12-08T21:58:03.345Z,76.93
2022-12-08T22:00:35.210Z,76.93
2022-12-08T22:03:07.827Z,76.93
2022-12-08T22:05:39.589Z,76.92
2022-12-08T22:08:11.661Z,76.96
2022-12-08T22:10:47.387Z,77.03
2022-12-08T22:13:19.239Z,77.07
2022-12-08T22:15:59.998Z,77.19
2022-12-08T22:18:32.382Z,77.20
2022-12-08T22:21:08.383Z,77.12
2022-12-08T22:23:40.685Z,77.11
2022-12-08T22:26:13.194Z,77.19
2022-12-08T22:28:46.080Z,77.06
2022-12-08T22:31:21.023Z,77.15
2022-12-08T22:33:53.254Z,77.19
2022-12-08T22:36:26.927Z,77.00
2022-12-08T22:38:58.920Z,77.14
2022-12-08T22:41:30.608Z,77.08
2022-12-08T22:44:02.334Z,77.07
2022-12-08T22:46:34.397Z,77.06
2022-12-08T22:49:06.403Z,77.10
2022-12-08T22:51:39.474Z,77.04
2022-12-08T22:54:12.841Z,77.01
2022-12-08T22:56:44.528Z,77.06
2022-12-08T22:59:16.199Z,77.09
2022-12-08T23:01:47.914Z,77.13
2022-12-08T23:04:19.608Z,77.01
2022-12-08T23:06:51.364Z,77.07
2022-12-08T23:09:23.996Z,77.00
2022-12-08T23:11:55.931Z,76.76
2022-12-08T23:14:27.701Z,76.77
2022-12-08T23:16:59.694Z,76.74
2022-12-08T23:19:31.434Z,76.82
2022-12-08T23:22:03.211Z,76.91
2022-12-08T23:24:35.321Z,76.82
2022-12-08T23:27:07.030Z,76.91
2022-12-08T23:29:39.816Z,76.89
2022-12-08T23:32:11.721Z,77.04
2022-12-08T23:34:43.552Z,76.96
2022-12-08T23:37:15.406Z,76.87
2022-12-08T23:39:47.456Z,77.16
2022-12-08T23:42:19.145Z,77.12
2022-12-08T23:44:50.905Z,77.18
2022-12-08T23:47:22.693Z,77.16
2022-12-08T23:49:54.435Z,77.08
2022-12-08T23:52:26.111Z,77.15
2022-12-08T23:54:57.767Z,77.26
2022-12-08T23:57:29.357Z,77.33
